Time;durP1;ratioP1;P1;durP2;ratioP2;P2;SDS_P1;SDS_P2;PMS_P1;PMS_P2;Temp;Humidity;BMP_temperature;BMP_pressure;BME280_temperature;BME280_humidity;BME280_pressure;Samples;Min_cycle;Max_cycle;Signal;HPM_P1;HPM_P2
2022/02/21 00:01:38;;;;;;;4.60;1.10;;;;;;;18.69;44.75;99648.94;5014278;28;20437;-67
2022/02/21 00:04:03;;;;;;;4.43;1.00;;;;;;;18.66;44.89;99659.84;5014939;28;20366;-67
2022/02/21 00:06:28;;;;;;;5.43;1.08;;;;;;;18.65;44.73;99655.53;5013431;28;20145;-67
2022/02/21 00:08:53;;;;;;;4.60;0.97;;;;;;;18.63;44.42;99662.78;5014808;28;20033;-68
2022/02/21 00:11:19;;;;;;;6.07;1.33;;;;;;;18.61;44.69;99670.88;5014227;28;20750;-68
2022/02/21 00:13:44;;;;;;;5.13;1.05;;;;;;;18.59;44.49;99675.44;5013896;28;20286;-68
2022/02/21 00:16:09;;;;;;;4.77;1.50;;;;;;;18.57;44.29;99672.16;5014088;28;20037;-68
2022/02/21 00:18:35;;;;;;;5.70;1.23;;;;;;;18.53;44.47;99675.25;5014514;28;20333;-68
2022/02/21 00:21:00;;;;;;;5.63;1.75;;;;;;;18.51;44.36;99664.03;5013971;28;20037;-68
2022/02/21 00:23:31;;;;;;;6.47;1.40;;;;;;;18.51;44.34;99683.31;5014126;28;20368;-68
2022/02/21 00:25:56;;;;;;;3.97;1.08;;;;;;;18.49;44.22;99686.13;5014521;28;20279;-68
2022/02/21 00:28:21;;;;;;;4.80;1.00;;;;;;;18.47;44.29;99698.63;5013151;28;20033;-68
2022/02/21 00:30:50;;;;;;;7.90;1.30;;;;;;;18.47;44.07;99708.38;5014249;28;20040;-68
2022/02/21 00:33:15;;;;;;;3.42;0.93;;;;;;;18.44;44.42;99722.69;5014117;28;20294;-68
2022/02/21 00:35:40;;;;;;;4.57;1.08;;;;;;;18.43;44.12;99731.56;5012347;28;20030;-68
2022/02/21 00:38:05;;;;;;;6.10;1.23;;;;;;;18.42;44.00;99726.44;5014219;28;20477;-68
2022/02/21 00:40:31;;;;;;;5.10;1.38;;;;;;;18.39;44.22;99729.41;5013737;28;20034;-68
2022/02/21 00:42:56;;;;;;;5.45;1.20;;;;;;;18.38;44.36;99740.94;5013359;28;20489;-68
2022/02/21 00:45:21;;;;;;;5.05;1.00;;;;;;;18.38;43.91;99748.88;5013341;28;20026;-67
2022/02/21 00:47:46;;;;;;;6.32;1.65;;;;;;;18.36;44.06;99749.00;5014233;28;20064;-68
2022/02/21 00:50:12;;;;;;;5.53;1.58;;;;;;;18.34;43.99;99760.69;5012800;28;20041;-68
2022/02/21 00:52:37;;;;;;;5.07;1.42;;;;;;;18.34;44.03;99761.53;5013861;28;20045;-67
2022/02/21 00:55:03;;;;;;;5.63;1.48;;;;;;;18.31;43.62;99760.00;5014002;28;20073;-67
2022/02/21 00:57:28;;;;;;;6.82;1.65;;;;;;;18.30;43.72;99760.16;5012542;28;20037;-67
2022/02/21 00:59:54;;;;;;;6.10;1.30;;;;;;;18.29;43.67;99761.13;5013534;28;20029;-67
2022/02/21 01:02:19;;;;;;;6.47;1.35;;;;;;;18.28;43.54;99760.31;5013531;28;20029;-68
2022/02/21 01:04:44;;;;;;;6.77;1.37;;;;;;;18.25;43.66;99768.53;5013100;28;20022;-67
2022/02/21 01:07:10;;;;;;;6.63;1.40;;;;;;;18.24;43.63;99773.97;5013224;28;20295;-68
2022/02/21 01:09:38;;;;;;;5.25;1.60;;;;;;;18.22;43.45;99787.28;5012756;28;20045;-68
2022/02/21 01:12:03;;;;;;;6.65;1.50;;;;;;;18.21;43.40;99788.25;5013549;28;20420;-67
2022/02/21 01:14:29;;;;;;;5.70;1.50;;;;;;;18.21;43.49;99805.91;5013090;28;20022;-67
2022/02/21 01:16:54;;;;;;;6.55;1.50;;;;;;;18.17;43.41;99805.38;5012862;28;20033;-68
2022/02/21 01:19:19;;;;;;;6.60;1.58;;;;;;;18.17;43.37;99815.13;5013087;28;20026;-68
2022/02/21 01:21:45;;;;;;;6.05;1.50;;;;;;;18.16;43.20;99801.06;5013474;28;20486;-69
2022/02/21 01:24:10;;;;;;;4.60;1.50;;;;;;;18.13;43.25;99818.03;5012297;28;20026;-69
2022/02/21 01:26:41;;;;;;;5.90;1.40;;;;;;;18.12;43.02;99832.19;5013319;28;20076;-68
2022/02/21 01:29:06;;;;;;;7.05;1.77;;;;;;;18.10;42.81;99820.97;5013002;28;20381;-68
2022/02/21 01:31:31;;;;;;;7.97;1.60;;;;;;;18.08;43.21;99807.09;5012472;28;20109;-68
2022/02/21 01:33:57;;;;;;;4.70;1.40;;;;;;;18.09;42.75;99829.84;5013310;28;20766;-68
2022/02/21 01:36:22;;;;;;;4.30;1.38;;;;;;;18.06;42.67;99824.88;5012850;28;20044;-68
2022/02/21 01:38:47;;;;;;;6.85;2.65;;;;;;;18.05;43.33;99825.84;5012428;28;20037;-68
2022/02/21 01:41:18;;;;;;;6.30;1.43;;;;;;;18.04;42.66;99803.13;5012752;28;20022;-68
2022/02/21 01:43:45;;;;;;;5.30;1.30;;;;;;;18.03;42.84;99827.00;5012964;28;20378;-68
2022/02/21 01:46:10;;;;;;;6.00;1.13;;;;;;;17.99;42.51;99831.75;5011683;28;20030;-68
2022/02/21 01:48:36;;;;;;;7.68;1.50;;;;;;;17.97;43.20;99817.84;5012958;28;20075;-68
2022/02/21 01:51:01;;;;;;;8.70;1.33;;;;;;;17.97;42.97;99817.84;5013026;28;20034;-68
2022/02/21 01:53:27;;;;;;;5.95;1.60;;;;;;;17.97;43.04;99812.59;5011805;28;20049;-69
2022/02/21 01:55:53;;;;;;;6.88;1.60;;;;;;;17.95;42.21;99822.44;5012843;28;20080;-69
2022/02/21 01:58:19;;;;;;;4.90;1.40;;;;;;;17.94;42.63;99810.25;5012665;28;20041;-68
2022/02/21 02:00:44;;;;;;;5.43;1.50;;;;;;;17.92;42.20;99828.03;5012160;28;20406;-68
2022/02/21 02:03:09;;;;;;;4.40;1.17;;;;;;;17.91;42.69;99819.28;5012429;28;20072;-68
2022/02/21 02:05:35;;;;;;;6.60;1.50;;;;;;;17.89;42.53;99821.22;5012508;28;20046;-69
2022/02/21 02:08:01;;;;;;;7.57;1.48;;;;;;;17.90;42.00;99843.16;5012038;28;20084;-68
2022/02/21 02:10:27;;;;;;;5.90;1.27;;;;;;;17.88;42.27;99829.28;5012352;28;20033;-69
2022/02/21 02:12:53;;;;;;;6.10;1.40;;;;;;;17.88;42.35;99832.75;5011883;28;20028;-69
2022/02/21 02:15:19;;;;;;;5.63;1.48;;;;;;;17.87;42.06;99830.25;5012560;28;20026;-69
2022/02/21 02:17:45;;;;;;;6.07;1.50;;;;;;;17.83;42.14;99850.81;5012746;28;20101;-68
2022/02/21 02:20:11;;;;;;;5.32;1.27;;;;;;;17.84;42.51;99830.53;5011359;28;20048;-68
2022/02/21 02:22:40;;;;;;;5.13;1.38;;;;;;;17.83;41.84;99839.41;5012245;28;20045;-68
2022/02/21 02:25:05;;;;;;;4.28;1.40;;;;;;;17.83;42.32;99847.31;5012512;28;20068;-68
2022/02/21 02:27:31;;;;;;;7.47;1.67;;;;;;;17.85;42.38;99851.47;5011102;28;20026;-68
2022/02/21 02:29:59;;;;;;;7.97;1.90;;;;;;;17.86;42.34;99841.75;5012452;28;20108;-68
2022/02/21 02:32:25;;;;;;;6.53;1.50;;;;;;;17.90;42.13;99837.88;5012209;28;20461;-68
2022/02/21 02:34:53;;;;;;;5.25;1.50;;;;;;;17.90;41.99;99837.88;5011763;28;20034;-68
2022/02/21 02:37:24;;;;;;;7.97;1.60;;;;;;;17.94;41.64;99844.50;5012222;28;20056;-68
2022/02/21 02:39:50;;;;;;;5.90;1.20;;;;;;;17.95;41.35;99859.34;5012414;28;20112;-68
2022/02/21 02:42:16;;;;;;;5.55;1.50;;;;;;;17.95;41.37;99868.09;5011261;28;20126;-68
2022/02/21 02:44:42;;;;;;;6.00;1.60;;;;;;;17.96;40.97;99855.75;5012327;28;20029;-68
2022/02/21 02:47:09;;;;;;;5.90;1.50;;;;;;;17.98;41.12;99858.25;5012288;28;20378;-68
2022/02/21 02:49:35;;;;;;;5.38;1.20;;;;;;;17.97;40.98;99852.13;5011433;28;20444;-68
2022/02/21 02:52:03;;;;;;;5.18;1.30;;;;;;;17.97;41.67;99861.84;5012338;28;20037;-68
2022/02/21 02:54:28;;;;;;;5.03;1.40;;;;;;;17.97;41.47;99840.75;5011874;28;20026;-68
2022/02/21 02:56:57;;;;;;;5.10;1.38;;;;;;;17.98;41.25;99866.16;5011510;28;20029;-68
2022/02/21 02:59:24;;;;;;;4.53;1.20;;;;;;;17.99;41.16;99852.81;5014890;28;20028;-68
2022/02/21 03:01:49;;;;;;;7.18;1.45;;;;;;;17.99;40.91;99854.63;5016037;28;20041;-68
2022/02/21 03:04:16;;;;;;;4.22;1.13;;;;;;;17.99;40.95;99858.09;5015024;28;20026;-68
2022/02/21 03:06:41;;;;;;;5.57;1.40;;;;;;;17.99;41.08;99868.66;5015439;28;20052;-68
2022/02/21 03:09:06;;;;;;;6.73;1.40;;;;;;;18.00;41.35;99872.09;5014826;28;20030;-69
2022/02/21 03:11:31;;;;;;;8.80;1.75;;;;;;;17.99;40.85;99855.47;5015549;28;20765;-68
2022/02/21 03:13:59;;;;;;;7.78;1.42;;;;;;;17.97;40.80;99856.56;5015923;28;20030;-68
2022/02/21 03:16:24;;;;;;;4.63;1.33;;;;;;;17.97;40.86;99835.50;5014683;28;20056;-68
2022/02/21 03:18:50;;;;;;;7.30;1.90;;;;;;;17.95;40.93;99849.63;5015741;28;20498;-68
2022/02/21 03:21:21;;;;;;;8.20;1.50;;;;;;;17.96;41.12;99858.41;5015483;28;20092;-69
2022/02/21 03:23:47;;;;;;;5.28;1.40;;;;;;;17.97;41.69;99875.84;5014858;28;20088;-68
2022/02/21 03:26:12;;;;;;;6.53;1.58;;;;;;;17.97;41.89;99891.66;5015440;28;20470;-68
2022/02/21 03:28:37;;;;;;;6.35;1.60;;;;;;;17.98;42.52;99884.59;5015491;28;20045;-68
2022/02/21 03:31:03;;;;;;;5.60;1.50;;;;;;;18.00;42.46;99893.19;5014891;28;20025;-68
2022/02/21 03:33:28;;;;;;;7.68;1.60;;;;;;;18.01;41.99;99884.28;5015116;28;20037;-68
2022/02/21 03:35:53;;;;;;;9.68;1.80;;;;;;;18.00;41.50;99866.81;5015333;28;20062;-68
2022/02/21 03:38:19;;;;;;;6.93;1.48;;;;;;;18.02;41.60;99870.13;5014239;28;20537;-68
2022/02/21 03:40:44;;;;;;;7.50;1.55;;;;;;;18.02;41.65;99875.41;5015135;28;20034;-68
2022/02/21 03:43:10;;;;;;;7.03;1.40;;;;;;;18.03;41.51;99866.53;5015090;28;20049;-68
2022/02/21 03:45:35;;;;;;;7.15;1.52;;;;;;;18.04;41.20;99881.34;5014499;28;20026;-68
2022/02/21 03:48:01;;;;;;;4.57;1.42;;;;;;;18.01;40.79;99865.84;5015244;28;20386;-68
2022/02/21 03:50:26;;;;;;;7.65;1.73;;;;;;;18.01;40.68;99879.00;5014713;28;20034;-68
2022/02/21 03:52:52;;;;;;;8.57;1.60;;;;;;;18.02;40.59;99901.78;5014119;28;20045;-68
2022/02/21 03:55:18;;;;;;;6.97;1.58;;;;;;;17.99;40.39;99897.66;5014563;28;20022;-68
2022/02/21 03:57:44;;;;;;;5.40;1.42;;;;;;;17.98;40.33;99895.16;5014949;28;20033;-68
2022/02/21 04:00:12;;;;;;;6.97;1.65;;;;;;;17.96;40.67;99890.03;5013900;28;20030;-68
2022/02/21 04:02:41;;;;;;;4.90;1.40;;;;;;;17.97;40.30;99907.47;5014804;28;20030;-68
2022/02/21 04:05:08;;;;;;;7.20;1.52;;;;;;;17.95;40.34;99898.91;5014547;28;20053;-68
2022/02/21 04:07:34;;;;;;;5.97;1.73;;;;;;;17.92;40.73;99889.47;5013961;28;20068;-66
2022/02/21 04:10:00;;;;;;;6.28;1.30;;;;;;;17.93;40.44;99888.50;5014595;28;20065;-68
2022/02/21 04:12:25;;;;;;;7.03;1.58;;;;;;;17.92;40.44;99912.38;5013602;28;20442;-69
2022/02/21 04:14:53;;;;;;;7.60;1.52;;;;;;;17.93;40.37;99892.94;5014553;28;20030;-68
2022/02/21 04:17:19;;;;;;;6.95;1.50;;;;;;;17.91;40.59;99895.72;5014329;28;20064;-68
2022/02/21 04:19:47;;;;;;;6.20;1.60;;;;;;;17.91;40.39;99906.28;5013770;28;20573;-69
2022/02/21 04:22:14;;;;;;;7.88;1.73;;;;;;;17.90;40.39;99895.88;5014104;28;20034;-68
2022/02/21 04:24:40;;;;;;;7.28;1.80;;;;;;;17.91;40.36;99894.88;5014511;28;20031;-68
2022/02/21 04:27:06;;;;;;;7.85;1.75;;;;;;;17.93;40.12;99882.41;5013779;28;20096;-68
2022/02/21 04:29:31;;;;;;;8.90;1.92;;;;;;;17.93;40.29;99895.59;5014155;28;20466;-68
2022/02/21 04:31:57;;;;;;;5.53;1.40;;;;;;;17.93;40.18;99883.22;5014454;28;20034;-68
2022/02/21 04:34:22;;;;;;;5.53;1.50;;;;;;;17.93;40.41;99914.84;5013243;28;20080;-68
2022/02/21 04:36:47;;;;;;;6.22;1.70;;;;;;;17.93;40.46;99906.97;5014429;28;20053;-68
2022/02/21 04:39:13;;;;;;;5.35;1.45;;;;;;;17.92;40.01;99900.00;5013902;28;20033;-69
2022/02/21 04:41:38;;;;;;;6.93;1.63;;;;;;;17.92;40.30;99900.00;5013179;28;20026;-69
2022/02/21 04:44:04;;;;;;;5.50;1.58;;;;;;;17.93;40.26;99906.13;5014053;28;20065;-69
2022/02/21 04:46:32;;;;;;;5.30;1.50;;;;;;;17.93;40.18;99914.84;5013661;28;20042;-68
2022/02/21 04:48:57;;;;;;;4.63;1.30;;;;;;;17.92;40.43;99915.81;5013256;28;20026;-68
2022/02/21 04:51:23;;;;;;;6.25;1.65;;;;;;;17.95;40.25;99912.09;5013523;28;20048;-68
2022/02/21 04:53:48;;;;;;;5.70;1.40;;;;;;;17.95;39.98;99909.44;5014104;28;20038;-68
2022/02/21 04:56:13;;;;;;;5.72;1.63;;;;;;;17.95;40.29;99923.44;5012909;28;20108;-68
2022/02/21 04:58:39;;;;;;;5.32;1.42;;;;;;;17.95;40.08;99912.91;5013806;28;20029;-68
2022/02/21 05:01:04;;;;;;;6.70;1.55;;;;;;;17.93;40.24;99911.41;5013857;28;20385;-68
2022/02/21 05:03:29;;;;;;;6.22;1.40;;;;;;;17.96;40.48;99911.13;5012619;28;20033;-68
2022/02/21 05:05:54;;;;;;;5.63;1.50;;;;;;;17.94;40.69;99908.63;5013666;28;20413;-68
2022/02/21 05:08:20;;;;;;;7.13;1.55;;;;;;;17.97;40.67;99919.84;5013366;28;20287;-68
2022/02/21 05:10:45;;;;;;;6.50;1.33;;;;;;;17.96;40.58;99924.31;5012914;28;20386;-67
2022/02/21 05:13:10;;;;;;;4.78;1.50;;;;;;;17.97;40.88;99914.56;5013279;28;20605;-67
2022/02/21 05:15:36;;;;;;;7.95;1.58;;;;;;;17.96;41.12;99908.47;5013221;28;20462;-68
2022/02/21 05:18:01;;;;;;;5.95;1.50;;;;;;;17.94;40.99;99900.72;5012731;28;20030;-68
2022/02/21 05:20:26;;;;;;;7.15;1.30;;;;;;;17.98;41.29;99905.69;5012281;28;20030;-68
2022/02/21 05:22:52;;;;;;;7.40;1.50;;;;;;;17.97;41.17;99910.13;5012706;28;20117;-67
2022/02/21 05:25:17;;;;;;;8.13;1.70;;;;;;;17.99;41.04;99907.34;5013013;28;20026;-68
2022/02/21 05:27:42;;;;;;;7.43;1.63;;;;;;;17.95;40.79;99898.91;5013104;28;20282;-68
2022/02/21 05:30:09;;;;;;;7.22;1.42;;;;;;;17.98;40.56;99895.16;5012234;28;20026;-67
2022/02/21 05:32:34;;;;;;;7.20;1.70;;;;;;;17.95;40.55;99899.72;5013056;28;20025;-67
2022/02/21 05:35:01;;;;;;;6.25;1.88;;;;;;;17.99;40.82;99895.00;5013250;28;20026;-68
2022/02/21 05:37:26;;;;;;;5.68;1.35;;;;;;;17.98;40.71;99903.88;5011845;28;20504;-67
2022/02/21 05:39:52;;;;;;;6.32;1.50;;;;;;;17.97;40.26;99896.94;5013045;28;20108;-68
2022/02/21 05:42:18;;;;;;;6.57;1.70;;;;;;;17.98;40.14;99895.16;5012696;28;20474;-68
2022/02/21 05:44:43;;;;;;;6.60;1.63;;;;;;;17.98;40.10;99895.16;5012029;28;20462;-68
2022/02/21 05:47:09;;;;;;;5.43;1.40;;;;;;;17.98;40.28;99888.06;5012650;28;20029;-68
2022/02/21 05:49:34;;;;;;;6.55;1.60;;;;;;;17.98;40.70;99884.59;5012872;28;20112;-68
2022/02/21 05:52:00;;;;;;;5.25;1.50;;;;;;;17.97;40.38;99885.56;5012201;28;20076;-68
2022/02/21 05:54:26;;;;;;;8.23;1.50;;;;;;;17.96;40.00;99892.66;5012735;28;20386;-67
2022/02/21 05:56:55;;;;;;;6.88;1.50;;;;;;;17.97;40.29;99893.47;5013000;28;20100;-67
2022/02/21 05:59:20;;;;;;;7.65;1.80;;;;;;;17.97;40.65;99881.13;5011587;28;20025;-67
2022/02/21 06:01:46;;;;;;;6.85;1.48;;;;;;;17.95;40.51;99885.72;5012723;28;20370;-67
2022/02/21 06:04:11;;;;;;;5.65;1.48;;;;;;;17.97;40.78;99885.56;5012305;28;20034;-67
2022/02/21 06:06:39;;;;;;;6.78;1.60;;;;;;;17.97;40.41;99886.41;5011785;28;20050;-67
2022/02/21 06:09:05;;;;;;;7.20;1.40;;;;;;;17.98;40.62;99888.06;5012787;28;20073;-67
2022/02/21 06:11:31;;;;;;;5.70;1.35;;;;;;;17.99;41.54;99892.38;5012466;28;20030;-67
2022/02/21 06:14:05;;;;;;;7.45;1.70;;;;;;;18.01;41.39;99892.19;5011961;28;20049;-68
2022/02/21 06:16:30;;;;;;;8.38;1.88;;;;;;;18.06;41.79;99892.59;5012243;28;20537;-67
2022/02/21 06:18:55;;;;;;;7.40;1.60;;;;;;;18.08;41.94;99885.38;5012831;28;20127;-67
2022/02/21 06:21:21;;;;;;;8.17;1.73;;;;;;;18.09;42.31;99887.88;5011643;28;20349;-67
2022/02/21 06:23:46;;;;;;;6.95;1.40;;;;;;;18.14;42.87;99892.69;5012828;28;20287;-68
2022/02/21 06:26:11;;;;;;;5.55;1.67;;;;;;;18.17;42.95;99886.31;5011690;28;20022;-67
2022/02/21 06:28:37;;;;;;;6.95;1.35;;;;;;;18.18;42.91;99888.78;5012330;28;20026;-67
2022/02/21 06:31:03;;;;;;;4.95;1.30;;;;;;;18.19;42.74;99885.16;5012491;28;20466;-67
2022/02/21 06:33:29;;;;;;;5.43;1.45;;;;;;;18.22;42.02;99890.16;5015068;28;20100;-67
2022/02/21 06:35:54;;;;;;;7.38;1.27;;;;;;;18.24;41.85;99890.81;5016676;28;20038;-67
2022/02/21 06:38:19;;;;;;;5.57;1.55;;;;;;;18.26;41.32;99890.66;5016314;28;20037;-67
2022/02/21 06:40:44;;;;;;;6.80;1.60;;;;;;;18.27;42.19;99898.44;5015820;28;20153;-67
2022/02/21 06:43:10;;;;;;;6.25;1.30;;;;;;;18.29;41.92;99895.66;5016100;28;20084;-67
2022/02/21 06:45:36;;;;;;;7.32;1.67;;;;;;;18.31;42.12;99912.19;5016261;28;20105;-68
2022/02/21 06:48:01;;;;;;;5.35;1.40;;;;;;;18.33;42.82;99902.31;5015514;28;20069;-67
2022/02/21 06:50:27;;;;;;;9.27;1.95;;;;;;;18.37;42.83;99892.28;5015906;28;20048;-67
2022/02/21 06:52:53;;;;;;;5.65;1.75;;;;;;;18.38;42.09;99886.84;5016359;28;20506;-67
2022/02/21 06:55:18;;;;;;;8.15;1.60;;;;;;;18.40;42.54;99894.63;5014899;28;20022;-67
2022/02/21 06:57:48;;;;;;;6.75;1.63;;;;;;;18.41;42.41;99897.09;5015880;28;20026;-67
2022/02/21 07:00:17;;;;;;;4.32;1.23;;;;;;;18.41;42.00;99891.81;5015445;28;20041;-67
2022/02/21 07:02:43;;;;;;;7.20;1.30;;;;;;;18.43;42.00;99889.03;5015241;28;20104;-67
2022/02/21 07:05:09;;;;;;;5.68;1.42;;;;;;;18.42;41.92;99882.94;5015546;28;20042;-67
2022/02/21 07:07:35;;;;;;;6.72;1.52;;;;;;;18.45;41.86;99884.44;5015869;28;20399;-67
2022/02/21 07:10:01;;;;;;;6.25;1.70;;;;;;;18.45;42.13;99890.56;5015254;28;20038;-66
2022/02/21 07:12:26;;;;;;;5.97;1.60;;;;;;;18.46;42.43;99881.66;5015527;28;20025;-66
2022/02/21 07:14:52;;;;;;;6.57;1.52;;;;;;;18.49;42.27;99881.34;5015675;28;20382;-67
2022/02/21 07:17:17;;;;;;;6.25;1.60;;;;;;;18.51;42.54;99877.75;5014795;28;20046;-67
2022/02/21 07:19:42;;;;;;;7.38;1.75;;;;;;;18.51;42.32;99883.03;5015696;28;20034;-66
2022/02/21 07:22:08;;;;;;;4.57;1.30;;;;;;;18.52;42.34;99888.16;5015347;28;20042;-67
2022/02/21 07:24:33;;;;;;;6.47;1.50;;;;;;;18.55;42.70;99879.09;5014715;28;20157;-66
2022/02/21 07:27:00;;;;;;;4.57;1.47;;;;;;;18.55;42.66;99872.03;5015372;28;20029;-67
2022/02/21 07:29:26;;;;;;;6.32;1.40;;;;;;;18.57;42.33;99887.69;5014390;28;20325;-68
2022/02/21 07:31:51;;;;;;;6.63;2.33;;;;;;;18.60;43.03;99885.56;5015386;28;20478;-68
2022/02/21 07:34:16;;;;;;;7.50;1.75;;;;;;;18.62;42.79;99880.97;5015268;28;20018;-66
2022/02/21 07:36:42;;;;;;;6.53;1.73;;;;;;;18.65;43.16;99878.03;5014712;28;20125;-67
2022/02/21 07:39:07;;;;;;;6.83;1.20;;;;;;;18.67;43.06;99870.81;5015216;28;20022;-67
2022/02/21 07:41:32;;;;;;;4.57;1.45;;;;;;;18.70;43.18;99867.03;5015279;28;20291;-67
2022/02/21 07:43:58;;;;;;;6.75;1.50;;;;;;;18.73;42.91;99877.28;5013770;28;20022;-71
2022/02/21 07:46:24;;;;;;;5.00;1.50;;;;;;;18.75;43.25;99871.84;5014612;28;20022;-67
2022/02/21 07:48:49;;;;;;;5.32;1.45;;;;;;;18.78;42.46;99877.66;5015354;28;20041;-67
2022/02/21 07:51:14;;;;;;;6.20;1.30;;;;;;;18.79;43.14;99866.13;5014154;28;20080;-68
2022/02/21 07:53:39;;;;;;;6.63;1.30;;;;;;;18.83;43.30;99858.72;5015163;28;20111;-68
2022/02/21 07:56:05;;;;;;;4.97;1.43;;;;;;;18.87;43.08;99851.34;5015198;28;20287;-67
2022/02/21 07:58:30;;;;;;;11.52;1.40;;;;;;;18.89;43.34;99868.69;5013933;28;20643;-68
2022/02/21 08:00:56;;;;;;;5.03;1.40;;;;;;;18.93;43.35;99863.94;5014845;28;20033;-68
2022/02/21 08:03:21;;;;;;;7.10;1.40;;;;;;;18.92;43.43;99864.94;5014685;28;20018;-69
2022/02/21 08:05:47;;;;;;;7.25;1.50;;;;;;;18.96;43.30;99861.00;5014099;28;20493;-68
2022/02/21 08:08:12;;;;;;;6.32;1.35;;;;;;;18.94;42.03;99852.41;5014435;28;20030;-70
2022/02/21 08:10:37;;;;;;;5.30;1.40;;;;;;;18.94;41.94;99853.22;5014580;28;20117;-75
2022/02/21 08:13:02;;;;;;;7.25;1.55;;;;;;;18.93;42.28;99853.38;5013955;28;20349;-68
2022/02/21 08:15:28;;;;;;;7.22;1.48;;;;;;;18.93;42.38;99856.84;5014309;28;20030;-69
2022/02/21 08:17:54;;;;;;;4.57;1.20;;;;;;;18.94;42.82;99847.13;5014775;28;20045;-70
2022/02/21 08:20:24;;;;;;;6.88;1.42;;;;;;;18.96;43.15;99840.72;5013455;28;20116;-70
2022/02/21 08:22:51;;;;;;;6.82;2.55;;;;;;;18.99;43.43;99824.56;5014589;28;20038;-68
2022/02/21 08:25:17;;;;;;;5.25;1.42;;;;;;;19.01;43.38;99819.13;5014012;28;20078;-69
2022/02/21 08:27:44;;;;;;;7.13;1.60;;;;;;;19.01;43.16;99827.88;5013490;28;20026;-69
2022/02/21 08:30:20;;;;;;;7.50;1.65;;;;;;;19.02;43.15;99818.13;5013969;28;20041;-69
2022/02/21 08:32:46;;;;;;;7.43;1.65;;;;;;;19.04;43.27;99818.78;5013861;28;20018;-69
2022/02/21 08:35:11;;;;;;;7.30;2.10;;;;;;;19.03;43.43;99809.22;5014018;28;20050;-69
2022/02/21 08:37:40;;;;;;;5.47;1.40;;;;;;;19.03;43.22;99811.88;5014264;28;20084;-69
2022/02/21 08:40:09;;;;;;;7.53;1.60;;;;;;;19.03;43.32;99809.22;5013491;28;20069;-68
2022/02/21 08:42:34;;;;;;;7.15;1.48;;;;;;;19.04;43.29;99802.94;5014028;28;20076;-70
2022/02/21 08:45:00;;;;;;;5.53;1.50;;;;;;;19.05;43.12;99817.81;5014379;28;20462;-73
2022/02/21 08:47:25;;;;;;;5.63;1.40;;;;;;;19.06;43.32;99801.00;5013072;28;20049;-72
2022/02/21 08:49:51;;;;;;;6.90;1.70;;;;;;;19.07;43.31;99785.97;5014122;28;20056;-73
2022/02/21 08:52:17;;;;;;;6.20;1.50;;;;;;;19.09;42.89;99818.31;5013756;28;20038;-72
2022/02/21 08:54:43;;;;;;;9.75;1.50;;;;;;;19.09;43.09;99794.56;5012904;28;20109;-74
2022/02/21 08:57:09;;;;;;;9.55;2.53;;;;;;;19.10;43.21;99799.69;5012600;28;20105;-75
2022/02/21 08:59:35;;;;;;;5.85;1.30;;;;;;;19.09;41.92;99797.19;5013869;28;20109;-73
2022/02/21 09:02:00;;;;;;;6.55;1.40;;;;;;;19.09;42.87;99792.78;5013108;28;20451;-71
2022/02/21 09:04:25;;;;;;;6.10;1.30;;;;;;;19.08;41.39;99792.91;5013481;28;20041;-71
2022/02/21 09:06:54;;;;;;;5.22;1.40;;;;;;;19.08;41.66;99801.66;5013671;28;20299;-77
2022/02/21 09:09:22;;;;;;;8.13;1.83;;;;;;;19.08;42.28;99792.91;5012591;28;20482;-71
2022/02/21 09:11:49;;;;;;;6.82;1.40;;;;;;;19.09;42.76;99773.44;5013764;28;20022;-71
2022/02/21 09:14:15;;;;;;;8.02;1.50;;;;;;;19.12;42.77;99773.13;5013455;28;20117;-72
2022/02/21 09:16:40;;;;;;;7.28;1.63;;;;;;;19.14;42.96;99784.38;5012765;28;20018;-71
2022/02/21 09:19:05;;;;;;;6.70;1.50;;;;;;;19.14;43.26;99773.81;5013555;28;20060;-72
2022/02/21 09:21:30;;;;;;;6.80;1.43;;;;;;;19.16;42.86;99787.69;5013039;28;20683;-69
2022/02/21 09:23:56;;;;;;;6.03;1.75;;;;;;;19.15;42.87;99775.44;5012597;28;20357;-70
2022/02/21 09:26:21;;;;;;;6.70;1.35;;;;;;;19.16;43.07;99756.81;5012732;28;20026;-70
2022/02/21 09:28:47;;;;;;;6.97;1.50;;;;;;;19.18;43.34;99776.00;5013440;28;20030;-71
2022/02/21 09:31:12;;;;;;;7.18;1.60;;;;;;;19.20;42.92;99779.28;5012255;28;20022;-71
2022/02/21 09:33:37;;;;;;;6.13;1.40;;;;;;;19.21;43.33;99749.22;5013683;28;20026;-69
2022/02/21 09:36:03;;;;;;;4.77;1.20;;;;;;;19.22;42.95;99752.72;5012512;28;20053;-70
2022/02/21 09:38:28;;;;;;;5.68;1.33;;;;;;;19.18;43.37;99731.09;5012667;28;20759;-70
2022/02/21 09:40:56;;;;;;;5.82;1.13;;;;;;;19.21;43.47;99735.22;5012861;28;20382;-70
2022/02/21 09:43:26;;;;;;;7.00;1.65;;;;;;;19.21;43.36;99728.09;5011880;28;20550;-70
2022/02/21 09:45:58;;;;;;;6.68;1.30;;;;;;;19.22;43.13;99718.38;5013168;28;20018;-70
2022/02/21 09:48:25;;;;;;;5.45;1.42;;;;;;;19.22;43.33;99723.66;5012600;28;20101;-70
2022/02/21 09:50:50;;;;;;;6.03;1.48;;;;;;;19.22;43.66;99723.66;5012180;28;20033;-70
2022/02/21 09:53:16;;;;;;;6.17;1.40;;;;;;;19.21;43.46;99720.19;5012432;28;20109;-69
2022/02/21 09:55:42;;;;;;;6.07;1.48;;;;;;;19.22;43.42;99715.75;5012885;28;20303;-69
2022/02/21 09:58:08;;;;;;;5.82;1.35;;;;;;;19.21;43.13;99703.50;5012014;28;20061;-70
2022/02/21 10:00:33;;;;;;;9.45;1.90;;;;;;;19.23;43.52;99692.78;5012636;28;20030;-70
2022/02/21 10:02:59;;;;;;;6.93;1.92;;;;;;;19.23;43.75;99692.78;5012990;28;20125;-69
2022/02/21 10:05:32;;;;;;;6.43;1.50;;;;;;;19.23;43.31;99700.72;5011600;28;20073;-70
2022/02/21 10:07:59;;;;;;;7.03;1.70;;;;;;;19.23;43.52;99709.44;5012506;28;20034;-70
2022/02/21 10:10:26;;;;;;;5.55;1.67;;;;;;;19.22;43.73;99707.81;5012448;28;20104;-70
2022/02/21 10:13:00;;;;;;;5.75;1.50;;;;;;;19.20;43.70;99692.13;5012098;28;20024;-70
2022/02/21 10:15:30;;;;;;;;;;;;;;;19.19;43.52;99690.47;5012595;28;20026;-70
2022/02/21 10:18:15;;;;;;;5.85;1.38;;;;;;;19.20;43.39;99694.78;5012730;28;20024;-70
2022/02/21 10:20:57;;;;;;;9.00;1.63;;;;;;;19.20;43.87;99689.50;5012615;28;20034;-70
2022/02/21 10:23:24;;;;;;;7.15;1.70;;;;;;;19.18;44.00;99683.56;5012208;28;20037;-70
2022/02/21 10:25:57;;;;;;;5.45;1.42;;;;;;;19.19;43.72;99682.53;5011960;28;20105;-70
2022/02/21 10:28:33;;;;;;;6.80;1.65;;;;;;;19.18;43.73;99696.75;5012162;28;20026;-64
2022/02/21 10:31:21;;;;;;;8.57;1.63;;;;;;;19.19;43.39;99689.66;5012485;28;20164;-69
2022/02/21 10:33:48;;;;;;;7.90;1.65;;;;;;;19.18;43.34;99690.63;5011960;28;20037;-69
2022/02/21 10:36:28;;;;;;;5.80;1.60;;;;;;;19.17;43.48;99708.28;5012395;28;20045;-69
2022/02/21 10:38:54;;;;;;;6.53;1.20;;;;;;;19.19;43.52;99702.84;5012484;28;20022;-70
2022/02/21 10:41:22;;;;;;;5.93;1.75;;;;;;;19.16;43.39;99690.78;5012118;28;20389;-71
2022/02/21 10:43:47;;;;;;;5.43;1.60;;;;;;;19.18;43.53;99701.19;5012509;28;20022;-68
2022/02/21 10:46:13;;;;;;;4.97;1.45;;;;;;;19.17;43.40;99692.44;5012140;28;20153;-70
2022/02/21 10:48:45;;;;;;;4.32;1.35;;;;;;;19.18;43.16;99699.41;5011779;28;20038;-71
2022/02/21 10:51:10;;;;;;;6.97;1.67;;;;;;;19.18;43.73;99699.41;5012119;28;20037;-68
2022/02/21 10:53:41;;;;;;;5.72;1.30;;;;;;;19.17;43.80;99700.38;5011449;28;20333;-70
2022/02/21 10:56:08;;;;;;;6.15;1.50;;;;;;;19.17;43.85;99696.91;5012336;28;20054;-71
2022/02/21 10:58:34;;;;;;;5.53;1.88;;;;;;;19.19;43.75;99694.94;5013439;28;20032;-70
2022/02/21 11:01:01;;;;;;;6.10;1.90;;;;;;;19.25;43.67;99702.22;5011717;28;20037;-74
2022/02/21 11:03:28;;;;;;;6.13;1.52;;;;;;;19.26;43.68;99695.13;5011959;28;20393;-73
2022/02/21 11:05:55;;;;;;;8.10;1.67;;;;;;;19.27;43.77;99694.97;5012025;28;20038;-74
2022/02/21 11:08:21;;;;;;;8.07;1.90;;;;;;;19.24;43.79;99695.28;5010998;28;20062;-73
2022/02/21 11:10:52;;;;;;;5.72;1.80;;;;;;;19.24;43.69;99690.00;5012155;28;20557;-70
2022/02/21 11:13:20;;;;;;;6.45;1.55;;;;;;;19.22;43.63;99689.34;5011969;28;20037;-69
2022/02/21 11:15:47;;;;;;;8.45;1.58;;;;;;;19.23;43.90;99687.50;5011328;28;20029;-73
2022/02/21 11:18:14;;;;;;;8.48;1.92;;;;;;;19.20;44.15;99700.06;5011826;28;20084;-73
2022/02/21 11:20:39;;;;;;;5.57;1.48;;;;;;;19.20;44.17;99702.69;5015098;28;20248;-73
2022/02/21 11:23:07;;;;;;;7.63;2.00;;;;;;;19.18;44.10;99683.56;5014873;28;20034;-72
2022/02/21 11:25:47;;;;;;;6.22;1.48;;;;;;;19.19;44.00;99689.66;5015436;28;20026;-79
2022/02/21 11:28:31;;;;;;;6.00;1.52;;;;;;;19.20;44.06;99680.72;5015470;28;20041;-74
2022/02/21 11:31:02;;;;;;;6.50;1.48;;;;;;;19.16;43.17;99690.78;5015782;28;20037;-76